Time;durP1;ratioP1;P1;durP2;ratioP2;P2;SDS_P1;SDS_P2;PMS_P1;PMS_P2;Temp;Humidity;BMP_temperature;BMP_pressure;BME280_temperature;BME280_humidity;BME280_pressure;Samples;Min_cycle;Max_cycle;Signal;HPM_P1;HPM_P2
2024/01/13 00:02:00;;;;;;;26.93;15.83;;;;;;;-142.06;100.00;64312.41;5038557;28;20673;-83
2024/01/13 00:04:27;;;;;;;25.13;15.17;;;;;;;-142.06;100.00;64312.41;5051172;28;20196;-83
2024/01/13 00:06:54;;;;;;;26.13;15.50;;;;;;;-142.06;100.00;64312.41;5040577;28;20202;-80
2024/01/13 00:09:21;;;;;;;25.23;15.27;;;;;;;-142.06;100.00;64312.41;5035783;28;20218;-82
2024/01/13 00:11:48;;;;;;;24.80;15.33;;;;;;;-142.06;100.00;64312.41;5036106;28;20190;-82
2024/01/13 00:14:15;;;;;;;25.37;14.80;;;;;;;-142.06;100.00;64312.41;5037645;28;20544;-80
2024/01/13 00:16:41;;;;;;;26.10;14.93;;;;;;;-142.06;100.00;64312.41;5032884;28;20276;-83
2024/01/13 00:19:08;;;;;;;21.80;14.40;;;;;;;-142.06;100.00;64312.41;5038649;28;20198;-82
2024/01/13 00:21:35;;;;;;;24.47;14.67;;;;;;;-142.06;100.00;64312.41;5052729;28;20228;-83
2024/01/13 00:24:04;;;;;;;22.93;14.33;;;;;;;-142.06;100.00;64312.41;5053936;28;20197;-83
2024/01/13 00:26:32;;;;;;;23.50;14.73;;;;;;;-142.06;100.00;64312.41;5047094;28;20189;-81
2024/01/13 00:28:59;;;;;;;21.47;14.10;;;;;;;-142.06;100.00;64312.41;5033538;28;20236;-81
2024/01/13 00:31:25;;;;;;;22.53;14.80;;;;;;;-142.06;100.00;64312.41;5036226;28;20232;-84
2024/01/13 00:33:53;;;;;;;22.93;14.20;;;;;;;-142.06;100.00;64312.41;5052555;28;20197;-86
2024/01/13 00:36:20;;;;;;;23.10;14.03;;;;;;;-142.06;100.00;64312.41;5049432;28;20205;-85
2024/01/13 00:38:49;;;;;;;23.73;15.10;;;;;;;-142.06;100.00;64312.41;5038916;28;20197;-84
2024/01/13 00:41:15;;;;;;;25.50;15.43;;;;;;;-142.06;100.00;64312.41;5034006;28;20226;-83
2024/01/13 00:43:43;;;;;;;25.23;15.30;;;;;;;-142.06;100.00;64312.41;5052184;28;20236;-81
2024/01/13 00:46:10;;;;;;;23.70;14.63;;;;;;;-142.06;100.00;64312.41;5055317;28;20197;-86
2024/01/13 00:48:37;;;;;;;25.97;15.23;;;;;;;-142.06;100.00;64312.41;5041996;28;20240;-82
2024/01/13 00:51:10;;;;;;;24.63;14.67;;;;;;;-142.06;100.00;64312.41;5024034;28;20198;-83
2024/01/13 00:53:38;;;;;;;22.67;13.57;;;;;;;-142.06;100.00;64312.41;5024137;28;20201;-83
2024/01/13 00:56:06;;;;;;;23.87;13.53;;;;;;;-142.06;100.00;64312.41;5052447;28;20198;-83
2024/01/13 00:58:34;;;;;;;19.97;13.30;;;;;;;-142.06;100.00;64312.41;5038026;28;20208;-88
2024/01/13 01:01:11;;;;;;;20.17;12.83;;;;;;;-142.06;100.00;64312.41;5039563;28;20193;-81
2024/01/13 01:03:39;;;;;;;20.07;12.30;;;;;;;-142.06;100.00;64312.41;5055246;28;20250;-84
2024/01/13 01:06:06;;;;;;;22.03;13.83;;;;;;;-142.06;100.00;64312.41;5060159;28;20738;-82
2024/01/13 01:08:33;;;;;;;24.93;14.43;;;;;;;-142.06;100.00;64312.41;5034613;28;20254;-82
2024/01/13 01:11:07;;;;;;;25.87;15.13;;;;;;;-142.06;100.00;64312.41;5052733;28;20189;-82
2024/01/13 01:13:34;;;;;;;25.63;14.97;;;;;;;-142.06;100.00;64312.41;5055600;28;20205;-81
2024/01/13 01:16:01;;;;;;;25.57;16.17;;;;;;;-142.06;100.00;64312.41;5037143;28;20198;-81
2024/01/13 01:18:28;;;;;;;26.33;15.57;;;;;;;-142.06;100.00;64312.41;5030377;28;20198;-81
2024/01/13 01:21:10;;;;;;;26.57;14.77;;;;;;;-142.06;100.00;64312.41;5035418;28;20197;-83
2024/01/13 01:23:37;;;;;;;23.63;14.10;;;;;;;-142.06;100.00;64312.41;5050993;28;20619;-85
2024/01/13 01:26:05;;;;;;;26.60;15.90;;;;;;;-142.06;100.00;64312.41;5034980;28;20654;-84
2024/01/13 01:28:32;;;;;;;25.00;15.83;;;;;;;-142.06;100.00;64312.41;5035409;28;20209;-83
2024/01/13 01:31:06;;;;;;;28.37;15.70;;;;;;;-142.06;100.00;64312.41;5049055;28;20198;-86
2024/01/13 01:33:34;;;;;;;26.40;16.27;;;;;;;-142.06;100.00;64312.41;5052429;28;20221;-82
2024/01/13 01:36:02;;;;;;;27.50;15.87;;;;;;;-142.06;100.00;64312.41;5048772;28;20190;-83
2024/01/13 01:38:29;;;;;;;30.63;17.13;;;;;;;-142.06;100.00;64312.41;5069825;28;20719;-82
2024/01/13 01:41:09;;;;;;;29.67;16.80;;;;;;;-142.06;100.00;64312.41;5051196;28;20253;-82
2024/01/13 01:43:36;;;;;;;31.73;17.53;;;;;;;-142.06;100.00;64312.41;5034387;28;20666;-83
2024/01/13 01:46:04;;;;;;;27.70;16.90;;;;;;;-142.06;100.00;64312.41;5048651;28;20224;-82
2024/01/13 01:48:41;;;;;;;30.30;17.47;;;;;;;-142.06;100.00;64312.41;5052709;28;20237;-84
2024/01/13 01:51:15;;;;;;;32.17;17.80;;;;;;;-142.06;100.00;64312.41;5032690;28;20295;-83
2024/01/13 01:53:44;;;;;;;29.77;17.87;;;;;;;-142.06;100.00;64312.41;5040567;28;20213;-83
2024/01/13 01:56:16;;;;;;;30.70;17.73;;;;;;;-142.06;100.00;64312.41;5058909;28;20196;-82
2024/01/13 01:58:43;;;;;;;27.83;17.13;;;;;;;-142.06;100.00;64312.41;5039738;28;20201;-83
2024/01/13 02:01:10;;;;;;;31.83;17.87;;;;;;;-142.06;100.00;64312.41;5058025;28;20666;-82
2024/01/13 02:03:38;;;;;;;32.40;18.43;;;;;;;-142.06;100.00;64312.41;5053806;28;20213;-82
2024/01/13 02:06:06;;;;;;;29.97;18.07;;;;;;;-142.06;100.00;64312.41;5031694;28;20210;-81
2024/01/13 02:08:33;;;;;;;29.73;17.17;;;;;;;-142.06;100.00;64312.41;5056275;28;20217;-85
2024/01/13 02:11:11;;;;;;;30.43;17.47;;;;;;;-142.06;100.00;64312.41;5031515;28;20208;-82
2024/01/13 02:13:44;;;;;;;29.30;17.20;;;;;;;-142.06;100.00;64312.41;5035760;28;20289;-82
2024/01/13 02:16:13;;;;;;;30.53;17.73;;;;;;;-142.06;100.00;64312.41;5060150;28;20266;-82
2024/01/13 02:18:39;;;;;;;29.23;16.60;;;;;;;-142.06;100.00;64312.41;5037994;28;20201;-82
2024/01/13 02:21:10;;;;;;;30.73;17.47;;;;;;;-142.06;100.00;64312.41;5055976;28;20236;-82
2024/01/13 02:23:38;;;;;;;27.80;17.20;;;;;;;-142.06;100.00;64312.41;5027209;28;20206;-82
2024/01/13 02:26:06;;;;;;;33.30;18.50;;;;;;;-142.06;100.00;64312.41;5055149;28;20275;-82
2024/01/13 02:28:33;;;;;;;33.43;18.60;;;;;;;-142.06;100.00;64312.41;5054893;28;20210;-82
2024/01/13 02:31:14;;;;;;;34.00;17.83;;;;;;;-142.06;100.00;64312.41;5038212;28;20201;-83
2024/01/13 02:33:44;;;;;;;31.57;18.03;;;;;;;-142.06;100.00;64312.41;5043993;28;20220;-82
2024/01/13 02:36:11;;;;;;;33.97;18.10;;;;;;;-142.06;100.00;64312.41;5057456;28;20196;-83
2024/01/13 02:38:38;;;;;;;33.03;18.37;;;;;;;-142.06;100.00;64312.41;5032939;28;20309;-83
2024/01/13 02:41:05;;;;;;;31.17;17.63;;;;;;;-142.06;100.00;64312.41;5052916;28;20251;-81
2024/01/13 02:43:34;;;;;;;32.90;18.90;;;;;;;-142.06;100.00;64312.41;5039239;28;20284;-80
2024/01/13 02:46:01;;;;;;;33.67;18.80;;;;;;;-142.06;100.00;64312.41;5057480;28;20589;-82
2024/01/13 02:48:33;;;;;;;32.20;18.53;;;;;;;-142.06;100.00;64312.41;5054413;28;20359;-80
2024/01/13 02:51:09;;;;;;;31.80;18.10;;;;;;;-142.06;100.00;64312.41;5055107;28;20201;-81
2024/01/13 02:53:36;;;;;;;32.33;18.17;;;;;;;-142.06;100.00;64312.41;5054137;28;20670;-84
2024/01/13 02:56:04;;;;;;;33.63;18.77;;;;;;;-142.06;100.00;64312.41;5054429;28;20688;-81
2024/01/13 02:58:30;;;;;;;36.73;20.03;;;;;;;-142.06;100.00;64312.41;5056006;28;20728;-82
2024/01/13 03:01:10;;;;;;;30.17;17.53;;;;;;;-142.06;100.00;64312.41;5054155;28;20201;-81
2024/01/13 03:03:37;;;;;;;33.90;18.40;;;;;;;-142.06;100.00;64312.41;5055908;28;20287;-81
2024/01/13 03:06:06;;;;;;;30.63;16.83;;;;;;;-142.06;100.00;64312.41;5028257;28;20214;-80
2024/01/13 03:08:34;;;;;;;30.63;17.50;;;;;;;-142.06;100.00;64312.41;5058533;28;20205;-83
2024/01/13 03:11:09;;;;;;;36.40;19.13;;;;;;;-142.06;100.00;64312.41;5053315;28;20197;-80
2024/01/13 03:13:36;;;;;;;35.30;18.50;;;;;;;-142.06;100.00;64312.41;5056420;28;20190;-82
2024/01/13 03:16:03;;;;;;;35.80;19.07;;;;;;;-142.06;100.00;64312.41;5062942;28;20657;-82
2024/01/13 03:18:30;;;;;;;31.93;17.57;;;;;;;-142.06;100.00;64312.41;5060711;28;20196;-84
2024/01/13 03:21:07;;;;;;;33.30;17.97;;;;;;;-142.06;100.00;64312.41;5046095;28;20193;-81
2024/01/13 03:23:34;;;;;;;34.33;17.23;;;;;;;-142.06;100.00;64312.41;5053175;28;20217;-81
2024/01/13 03:26:01;;;;;;;30.37;17.47;;;;;;;-142.06;100.00;64312.41;5052530;28;20210;-81
2024/01/13 03:28:28;;;;;;;36.60;17.80;;;;;;;-142.06;100.00;64312.41;5047156;28;20705;-83
2024/01/13 03:31:10;;;;;;;35.67;17.90;;;;;;;-142.06;100.00;64312.41;5057409;28;20205;-82
2024/01/13 03:33:40;;;;;;;33.83;18.03;;;;;;;-142.06;100.00;64312.41;5034935;28;20236;-81
2024/01/13 03:36:08;;;;;;;32.53;18.27;;;;;;;-142.06;100.00;64312.41;5063450;28;20197;-82
2024/01/13 03:38:36;;;;;;;30.70;18.03;;;;;;;-142.06;100.00;64312.41;5056959;28;20190;-82
2024/01/13 03:41:10;;;;;;;34.70;18.03;;;;;;;-142.06;100.00;64312.41;5060628;28;20231;-83
2024/01/13 03:43:37;;;;;;;36.63;18.87;;;;;;;-142.06;100.00;64312.41;5035203;28;20212;-81
2024/01/13 03:46:05;;;;;;;34.97;18.77;;;;;;;-142.06;100.00;64312.41;5060130;28;20297;-81
2024/01/13 03:48:32;;;;;;;35.50;18.40;;;;;;;-142.06;100.00;64312.41;5039985;28;20229;-81
2024/01/13 03:50:59;;;;;;;34.17;17.33;;;;;;;-142.06;100.00;64312.41;5040278;28;20256;-83
2024/01/13 03:53:31;;;;;;;34.50;18.57;;;;;;;-142.06;100.00;64312.41;5074441;28;20280;-82
2024/01/13 03:55:58;;;;;;;33.47;17.93;;;;;;;-142.06;100.00;64312.41;5036221;28;20300;-82
2024/01/13 03:58:25;;;;;;;31.50;17.70;;;;;;;-142.06;100.00;64312.41;5052257;28;20673;-84
2024/01/13 04:00:52;;;;;;;32.27;17.63;;;;;;;-142.06;100.00;64312.41;5035871;28;20198;-84
2024/01/13 04:03:20;;;;;;;33.13;18.17;;;;;;;-142.06;100.00;64312.41;5055152;28;20684;-81
2024/01/13 04:05:47;;;;;;;33.30;17.37;;;;;;;-142.06;100.00;64312.41;5052402;28;20205;-81
2024/01/13 04:08:14;;;;;;;33.13;18.00;;;;;;;-142.06;100.00;64312.41;5038713;28;20292;-81
2024/01/13 04:10:41;;;;;;;37.60;18.73;;;;;;;-142.06;100.00;64312.41;5021334;28;20220;-81
2024/01/13 04:13:14;;;;;;;33.27;17.30;;;;;;;-142.06;100.00;64312.41;5055102;28;20676;-82
2024/01/13 04:15:41;;;;;;;30.40;17.07;;;;;;;-142.06;100.00;64312.41;5043028;28;20197;-81
2024/01/13 04:18:08;;;;;;;33.37;17.73;;;;;;;-142.06;100.00;64312.41;5052411;28;20194;-82
2024/01/13 04:20:36;;;;;;;32.77;17.93;;;;;;;-142.06;100.00;64312.41;5051540;28;20694;-82
2024/01/13 04:23:03;;;;;;;30.13;16.53;;;;;;;-142.06;100.00;64312.41;5047368;28;20197;-81
2024/01/13 04:25:31;;;;;;;30.23;17.17;;;;;;;-142.06;100.00;64312.41;5035604;28;20238;-80
2024/01/13 04:28:00;;;;;;;31.80;17.50;;;;;;;-142.06;100.00;64312.41;5039389;28;20198;-81
2024/01/13 04:30:28;;;;;;;32.23;17.03;;;;;;;-142.06;100.00;64312.41;5034781;28;20776;-81
2024/01/13 04:32:57;;;;;;;31.40;17.20;;;;;;;-142.06;100.00;64312.41;5069074;28;20205;-84
2024/01/13 04:35:24;;;;;;;30.30;16.80;;;;;;;-142.06;100.00;64312.41;5049588;28;20229;-81
2024/01/13 04:37:51;;;;;;;27.07;16.83;;;;;;;-142.06;100.00;64312.41;5053612;28;20244;-81
2024/01/13 04:40:18;;;;;;;31.90;16.27;;;;;;;-142.06;100.00;64312.41;5053912;28;20228;-85
2024/01/13 04:42:45;;;;;;;29.63;16.53;;;;;;;-142.06;100.00;64312.41;5054249;28;20213;-82
2024/01/13 04:45:11;;;;;;;29.77;15.87;;;;;;;-142.06;100.00;64312.41;5051622;28;20218;-81
2024/01/13 04:47:38;;;;;;;28.37;16.40;;;;;;;-142.06;100.00;64312.41;5054067;28;20263;-82
2024/01/13 04:50:05;;;;;;;26.87;15.37;;;;;;;-142.06;100.00;64312.41;5033718;28;20275;-83
2024/01/13 04:52:32;;;;;;;31.10;16.80;;;;;;;-142.06;100.00;64312.41;5053961;28;20215;-82
2024/01/13 04:54:59;;;;;;;26.47;15.33;;;;;;;-142.06;100.00;64312.41;5047864;28;20244;-80
2024/01/13 04:57:26;;;;;;;28.70;15.70;;;;;;;-142.06;100.00;64312.41;5020588;28;20201;-82
2024/01/13 04:59:52;;;;;;;28.97;16.13;;;;;;;-142.06;100.00;64312.41;5056046;28;20240;-82
2024/01/13 05:02:19;;;;;;;30.40;15.77;;;;;;;-142.06;100.00;64312.41;5052798;28;20273;-83
2024/01/13 05:04:46;;;;;;;28.93;16.00;;;;;;;-142.06;100.00;64312.41;5034523;28;20224;-81
2024/01/13 05:07:13;;;;;;;26.33;14.43;;;;;;;-142.06;100.00;64312.41;5041579;28;20283;-81
2024/01/13 05:09:39;;;;;;;27.37;15.47;;;;;;;-142.06;100.00;64312.41;5038313;28;20288;-83
2024/01/13 05:12:06;;;;;;;25.73;15.13;;;;;;;-142.06;100.00;64312.41;5053240;28;20269;-82
2024/01/13 05:14:33;;;;;;;26.37;15.53;;;;;;;-142.06;100.00;64312.41;5049790;28;20216;-81
2024/01/13 05:17:04;;;;;;;30.20;16.07;;;;;;;-142.06;100.00;64312.41;5048532;28;20205;-81
2024/01/13 05:19:30;;;;;;;29.33;16.43;;;;;;;-142.06;100.00;64312.41;5038495;28;20199;-82
2024/01/13 05:21:58;;;;;;;26.63;15.80;;;;;;;-142.06;100.00;64312.41;5040655;28;20197;-81
2024/01/13 05:24:25;;;;;;;28.33;15.57;;;;;;;-142.06;100.00;64312.41;5054184;28;20212;-83
2024/01/13 05:26:53;;;;;;;30.13;16.67;;;;;;;-142.06;100.00;64312.41;5053294;28;20193;-82
2024/01/13 05:29:20;;;;;;;28.87;16.20;;;;;;;-142.06;100.00;64312.41;5052998;28;20308;-81
2024/01/13 05:31:47;;;;;;;28.23;16.13;;;;;;;-142.06;100.00;64312.41;5038808;28;20188;-82
2024/01/13 05:34:14;;;;;;;27.80;15.63;;;;;;;-142.06;100.00;64312.41;5043213;28;20197;-87
2024/01/13 05:36:41;;;;;;;28.57;15.27;;;;;;;-142.06;100.00;64312.41;5055052;28;20262;-82
2024/01/13 05:39:07;;;;;;;25.40;15.40;;;;;;;-142.06;100.00;64312.41;5053217;28;20255;-81
2024/01/13 05:41:34;;;;;;;30.73;15.97;;;;;;;-142.06;100.00;64312.41;5057655;28;20279;-83
2024/01/13 05:44:01;;;;;;;28.37;15.77;;;;;;;-142.06;100.00;64312.41;5053891;28;20209;-83
2024/01/13 05:46:28;;;;;;;29.63;15.90;;;;;;;-142.06;100.00;64312.41;5039234;28;20382;-82
2024/01/13 05:48:55;;;;;;;28.47;16.43;;;;;;;-142.06;100.00;64312.41;5041128;28;20277;-83
2024/01/13 05:51:22;;;;;;;29.07;15.50;;;;;;;-142.06;100.00;64312.41;5034109;28;20624;-84
2024/01/13 05:53:49;;;;;;;29.67;16.73;;;;;;;-142.06;100.00;64312.41;5036207;28;20576;-81
2024/01/13 05:56:16;;;;;;;28.50;15.73;;;;;;;-142.06;100.00;64312.41;5033195;28;20204;-83
2024/01/13 05:58:43;;;;;;;26.80;16.03;;;;;;;-142.06;100.00;64312.41;5068884;28;20208;-86
2024/01/13 06:01:09;;;;;;;26.63;16.20;;;;;;;-142.06;100.00;64312.41;5028074;28;20250;-84
2024/01/13 06:03:36;;;;;;;29.40;17.00;;;;;;;-142.06;100.00;64312.41;5035615;28;20202;-82
2024/01/13 06:06:04;;;;;;;30.90;17.17;;;;;;;-142.06;100.00;64312.41;5054177;28;20193;-86
2024/01/13 06:08:30;;;;;;;30.00;17.37;;;;;;;-142.06;100.00;64312.41;5031972;28;20204;-84
2024/01/13 06:10:57;;;;;;;32.27;16.87;;;;;;;-142.06;100.00;64312.41;5052844;28;20764;-84
2024/01/13 06:13:24;;;;;;;29.60;16.43;;;;;;;-142.06;100.00;64312.41;5034501;28;20208;-85
2024/01/13 06:15:50;;;;;;;28.77;16.17;;;;;;;-142.06;100.00;64312.41;5035436;28;20221;-82
2024/01/13 06:18:17;;;;;;;31.33;17.57;;;;;;;-142.06;100.00;64312.41;5034391;28;20207;-83
2024/01/13 06:20:45;;;;;;;30.87;16.67;;;;;;;-142.06;100.00;64312.41;5043313;28;20198;-85
2024/01/13 06:23:12;;;;;;;34.33;17.30;;;;;;;-142.06;100.00;64312.41;5035088;28;20693;-82
2024/01/13 06:25:39;;;;;;;29.87;17.37;;;;;;;-142.06;100.00;64312.41;5030184;28;20202;-82
2024/01/13 06:28:06;;;;;;;31.57;18.00;;;;;;;-142.06;100.00;64312.41;5035371;28;20264;-82
2024/01/13 06:30:33;;;;;;;31.17;17.13;;;;;;;-142.06;100.00;64312.41;5049364;28;20216;-82
2024/01/13 06:33:00;;;;;;;30.97;17.93;;;;;;;-142.06;100.00;64312.41;5047205;28;20206;-83
2024/01/13 06:35:27;;;;;;;29.60;17.07;;;;;;;-142.06;100.00;64312.41;5017605;28;20198;-80
2024/01/13 06:37:53;;;;;;;33.50;18.63;;;;;;;-142.06;100.00;64312.41;5054826;28;20243;-83
2024/01/13 06:40:20;;;;;;;29.97;17.53;;;;;;;-142.06;100.00;64312.41;5049933;28;20193;-81
2024/01/13 06:42:47;;;;;;;31.13;17.37;;;;;;;-142.06;100.00;64312.41;5039028;28;20221;-82
2024/01/13 06:45:14;;;;;;;32.70;17.90;;;;;;;-142.06;100.00;64312.41;5043262;28;20196;-84
2024/01/13 06:47:40;;;;;;;33.67;18.67;;;;;;;-142.06;100.00;64312.41;5037481;28;20239;-82
2024/01/13 06:50:08;;;;;;;30.83;17.77;;;;;;;-142.06;100.00;64312.41;5055526;28;20443;-83
2024/01/13 06:52:35;;;;;;;34.67;19.30;;;;;;;-142.06;100.00;64312.41;5053980;28;20198;-82
2024/01/13 06:55:02;;;;;;;35.13;19.33;;;;;;;-142.06;100.00;64312.41;5055212;28;20193;-81
2024/01/13 06:57:29;;;;;;;32.63;18.90;;;;;;;-142.06;100.00;64312.41;5039008;28;20679;-83
2024/01/13 06:59:56;;;;;;;33.87;18.90;;;;;;;-142.06;100.00;64312.41;5053919;28;20224;-83
2024/01/13 07:02:22;;;;;;;34.23;19.40;;;;;;;-142.06;100.00;64312.41;5037497;28;20217;-82
2024/01/13 07:04:50;;;;;;;31.63;18.83;;;;;;;-142.06;100.00;64312.41;5055923;28;20201;-81
2024/01/13 07:07:17;;;;;;;31.40;18.23;;;;;;;-142.06;100.00;64312.41;5038860;28;20197;-81
2024/01/13 07:09:44;;;;;;;36.00;19.47;;;;;;;-142.06;100.00;64312.41;5037923;28;20255;-83
2024/01/13 07:12:10;;;;;;;33.03;18.67;;;;;;;-142.06;100.00;64312.41;5036756;28;20606;-81
2024/01/13 07:14:37;;;;;;;34.23;18.27;;;;;;;-142.06;100.00;64312.41;5059420;28;20217;-81
2024/01/13 07:17:04;;;;;;;33.47;18.80;;;;;;;-142.06;100.00;64312.41;5058342;28;20216;-84
2024/01/13 07:19:31;;;;;;;30.40;17.43;;;;;;;-142.06;100.00;64312.41;5052376;28;20232;-82
2024/01/13 07:21:58;;;;;;;31.37;19.37;;;;;;;-142.06;100.00;64312.41;5031681;28;20280;-82
2024/01/13 07:24:25;;;;;;;31.97;18.27;;;;;;;-142.06;100.00;64312.41;5065357;28;20201;-83
2024/01/13 07:26:52;;;;;;;31.67;18.97;;;;;;;-142.06;100.00;64312.41;5059736;28;20231;-83
2024/01/13 07:29:19;;;;;;;28.83;17.50;;;;;;;-142.06;100.00;64312.41;5067080;28;20205;-84
2024/01/13 07:31:48;;;;;;;31.93;18.73;;;;;;;-142.06;100.00;64312.41;5059019;28;20203;-87
2024/01/13 07:34:15;;;;;;;34.50;19.73;;;;;;;-142.06;100.00;64312.41;5044367;28;20212;-82
2024/01/13 07:36:42;;;;;;;30.83;19.03;;;;;;;-142.06;100.00;64312.41;5061588;28;20197;-82
2024/01/13 07:39:09;;;;;;;29.00;18.40;;;;;;;-142.06;100.00;64312.41;5037325;28;20255;-85
2024/01/13 07:41:36;;;;;;;30.00;17.60;;;;;;;-142.06;100.00;64312.41;5057431;28;20213;-83
2024/01/13 07:44:07;;;;;;;43.53;22.97;;;;;;;-142.06;100.00;64312.41;5041378;28;20670;-84
2024/01/13 07:46:40;;;;;;;41.47;24.23;;;;;;;-142.06;100.00;64312.41;5056445;28;20201;-82
2024/01/13 07:49:07;;;;;;;36.23;19.93;;;;;;;-142.06;100.00;64312.41;5038818;28;20226;-84
2024/01/13 07:51:35;;;;;;;30.17;17.87;;;;;;;-142.06;100.00;64312.41;5053334;28;20190;-81
2024/01/13 07:54:02;;;;;;;30.23;17.63;;;;;;;-142.06;100.00;64312.41;5061864;28;20244;-83
2024/01/13 07:56:29;;;;;;;31.00;18.30;;;;;;;-142.06;100.00;64312.41;5031265;28;20221;-83
2024/01/13 07:58:56;;;;;;;33.60;20.33;;;;;;;-142.06;100.00;64312.41;5050787;28;20271;-83
2024/01/13 08:01:39;;;;;;;29.60;19.90;;;;;;;-142.06;100.00;64312.41;5038871;28;20209;-82
2024/01/13 08:04:06;;;;;;;32.13;19.33;;;;;;;-142.06;100.00;64312.41;5051746;28;20188;-81
2024/01/13 08:06:34;;;;;;;36.20;22.37;;;;;;;-142.06;100.00;64312.41;5039138;28;20197;-85
2024/01/13 08:09:03;;;;;;;32.87;20.00;;;;;;;-142.06;100.00;64312.41;5039736;28;20284;-83
2024/01/13 08:11:32;;;;;;;32.90;20.60;;;;;;;-142.06;100.00;64312.41;5020301;28;20450;-83
2024/01/13 08:14:06;;;;;;;34.27;21.90;;;;;;;-142.06;100.00;64312.41;5052936;28;20689;-83
2024/01/13 08:16:34;;;;;;;33.40;20.97;;;;;;;-142.06;100.00;64312.41;5051216;28;20719;-86
2024/01/13 08:19:02;;;;;;;31.87;20.47;;;;;;;-142.06;100.00;64312.41;5056277;28;20189;-84
2024/01/13 08:21:29;;;;;;;34.70;20.93;;;;;;;-142.06;100.00;64312.41;5054729;28;20196;-83
2024/01/13 08:24:06;;;;;;;40.27;24.07;;;;;;;-142.06;100.00;64312.41;5058368;28;20188;-84
2024/01/13 08:26:33;;;;;;;34.50;20.93;;;;;;;-142.06;100.00;64312.41;5051211;28;20193;-82
2024/01/13 08:29:00;;;;;;;30.50;19.27;;;;;;;-142.06;100.00;64312.41;5045792;28;20208;-87
2024/01/13 08:31:27;;;;;;;31.40;18.77;;;;;;;-142.06;100.00;64312.41;5026847;28;20279;-83
2024/01/13 08:34:07;;;;;;;28.43;17.77;;;;;;;-142.06;100.00;64312.41;5063633;28;20295;-83
2024/01/13 08:36:34;;;;;;;30.40;18.17;;;;;;;-142.06;100.00;64312.41;5037488;28;20193;-82
2024/01/13 08:39:01;;;;;;;28.17;17.47;;;;;;;-142.06;100.00;64312.41;5045955;28;20662;-82
2024/01/13 08:41:28;;;;;;;28.77;17.83;;;;;;;-142.06;100.00;64312.41;5036637;28;20213;-85
2024/01/13 08:44:01;;;;;;;31.57;19.07;;;;;;;-142.06;100.00;64312.41;5052340;28;20744;-83
2024/01/13 08:46:28;;;;;;;32.30;18.77;;;;;;;-142.06;100.00;64312.41;5034815;28;20206;-83
2024/01/13 08:48:56;;;;;;;29.27;18.33;;;;;;;-142.06;100.00;64312.41;5050781;28;20252;-84
2024/01/13 08:51:23;;;;;;;31.47;17.93;;;;;;;-142.06;100.00;64312.41;5051952;28;20275;-82
2024/01/13 08:54:05;;;;;;;27.90;16.87;;;;;;;-142.06;100.00;64312.41;5023636;28;20690;-81
2024/01/13 08:56:36;;;;;;;30.10;18.53;;;;;;;-142.06;100.00;64312.41;5036973;28;20189;-84
2024/01/13 08:59:06;;;;;;;31.03;18.70;;;;;;;-142.06;100.00;64312.41;5027702;28;20210;-83
2024/01/13 09:01:33;;;;;;;31.63;18.07;;;;;;;-142.06;100.00;64312.41;5049576;28;20205;-82
2024/01/13 09:04:07;;;;;;;31.53;18.27;;;;;;;-142.06;100.00;64312.41;5051043;28;20213;-85
2024/01/13 09:06:34;;;;;;;31.17;18.53;;;;;;;-142.06;100.00;64312.41;5065443;28;20216;-86
2024/01/13 09:09:01;;;;;;;28.63;17.90;;;;;;;-142.06;100.00;64312.41;5051624;28;20197;-85
2024/01/13 09:11:29;;;;;;;30.07;17.77;;;;;;;-142.06;100.00;64312.41;5036813;28;20225;-80
2024/01/13 09:14:10;;;;;;;30.17;17.33;;;;;;;-142.06;100.00;64312.41;5034412;28;20223;-85
2024/01/13 09:16:38;;;;;;;27.63;16.97;;;;;;;-142.06;100.00;64312.41;5015049;28;20744;-80
2024/01/13 09:19:05;;;;;;;30.40;17.90;;;;;;;-142.06;100.00;64312.41;5051013;28;20204;-80
2024/01/13 09:21:33;;;;;;;29.53;17.37;;;;;;;-142.06;100.00;64312.41;5035510;28;20205;-83
2024/01/13 09:24:08;;;;;;;28.67;17.87;;;;;;;-142.06;100.00;64312.41;5048859;28;20201;-83
2024/01/13 09:26:41;;;;;;;24.40;16.37;;;;;;;-142.06;100.00;64312.41;5040965;28;20213;-83
2024/01/13 09:29:11;;;;;;;26.20;17.07;;;;;;;-142.06;100.00;64312.41;5048845;28;20224;-82
2024/01/13 09:31:39;;;;;;;29.20;17.77;;;;;;;-142.06;100.00;64312.41;5051193;28;20727;-79
2024/01/13 09:34:07;;;;;;;28.90;17.47;;;;;;;-142.06;100.00;64312.41;5051325;28;20198;-82
2024/01/13 09:36:37;;;;;;;29.70;18.10;;;;;;;-142.06;100.00;64312.41;5049612;28;20724;-78
2024/01/13 09:39:03;;;;;;;30.37;18.20;;;;;;;-142.06;100.00;64312.41;5048569;28;20189;-80
2024/01/13 09:41:30;;;;;;;30.37;18.40;;;;;;;-142.06;100.00;64312.41;5045763;28;20205;-81
2024/01/13 09:44:25;;;;;;;28.37;17.87;;;;;;;-142.06;100.00;64312.41;5051245;28;20197;-82
2024/01/13 09:46:55;;;;;;;30.70;18.23;;;;;;;-142.06;100.00;64312.41;5049804;28;20201;-81
2024/01/13 09:49:24;;;;;;;31.80;18.53;;;;;;;-142.06;100.00;64312.41;5053705;28;20208;-82
2024/01/13 09:51:52;;;;;;;31.53;18.63;;;;;;;-142.06;100.00;64312.41;5032251;28;20226;-83
2024/01/13 09:54:27;;;;;;;26.87;16.90;;;;;;;-142.06;100.00;64312.41;5051335;28;20259;-80
2024/01/13 09:56:56;;;;;;;27.90;16.70;;;;;;;-142.06;100.00;64312.41;5053552;28;20673;-83
2024/01/13 09:59:28;;;;;;;30.40;17.30;;;;;;;-142.06;100.00;64312.41;5037640;28;20197;-83
2024/01/13 10:01:58;;;;;;;31.43;18.13;;;;;;;-142.06;100.00;64312.41;5036007;28;20200;-81
2024/01/13 10:04:26;;;;;;;29.47;17.90;;;;;;;-142.06;100.00;64312.41;5035092;28;20205;-84
2024/01/13 10:06:53;;;;;;;29.00;17.67;;;;;;;-142.06;100.00;64312.41;5044986;28;20193;-81
2024/01/13 10:09:21;;;;;;;27.97;17.43;;;;;;;-142.06;100.00;64312.41;5043526;28;20196;-81
2024/01/13 10:12:08;;;;;;;28.73;17.33;;;;;;;-142.06;100.00;64312.41;5048307;28;20228;-80
2024/01/13 10:14:39;;;;;;;27.33;17.03;;;;;;;-142.06;100.00;64312.41;5034669;28;20583;-83
2024/01/13 10:17:08;;;;;;;27.13;16.83;;;;;;;-142.06;100.00;64312.41;5037565;28;20228;-83
2024/01/13 10:19:39;;;;;;;25.27;16.77;;;;;;;-142.06;100.00;64312.41;5037487;28;20202;-80
2024/01/13 10:22:06;;;;;;;24.27;15.90;;;;;;;-142.06;100.00;64312.41;5053993;28;20211;-81
2024/01/13 10:24:34;;;;;;;26.47;16.27;;;;;;;-142.06;100.00;64312.41;5053059;28;20288;-80
2024/01/13 10:27:03;;;;;;;25.17;15.50;;;;;;;-142.06;100.00;64312.41;5054026;28;20216;-81
2024/01/13 10:29:32;;;;;;;26.20;16.17;;;;;;;-142.06;100.00;64312.41;5074139;28;20224;-83
2024/01/13 10:32:01;;;;;;;25.80;15.53;;;;;;;-142.06;100.00;64312.41;5053025;28;20224;-82
2024/01/13 10:34:28;;;;;;;26.80;16.90;;;;;;;-142.06;100.00;64312.41;5040365;28;20217;-87
2024/01/13 10:37:10;;;;;;;26.40;16.23;;;;;;;-142.06;100.00;64312.41;5038228;28;20665;-85
2024/01/13 10:39:43;;;;;;;25.63;15.90;;;;;;;-142.06;100.00;64312.41;5024744;28;20255;-84
2024/01/13 10:42:10;;;;;;;29.17;16.73;;;;;;;-142.06;100.00;64312.41;5039194;28;20217;-82
2024/01/13 10:44:43;;;;;;;28.30;16.53;;;;;;;-142.06;100.00;64312.41;5038543;28;20293;-84
2024/01/13 10:47:14;;;;;;;23.73;15.60;;;;;;;-142.06;100.00;64312.41;5041763;28;20197;-84
2024/01/13 10:49:42;;;;;;;24.23;14.77;;;;;;;-142.06;100.00;64312.41;5042832;28;20206;-85
2024/01/13 10:52:12;;;;;;;23.33;14.07;;;;;;;-142.06;100.00;64312.41;5037671;28;20253;-84
2024/01/13 10:54:39;;;;;;;20.53;14.03;;;;;;;-142.06;100.00;64312.41;5056995;28;20202;-82
2024/01/13 10:57:09;;;;;;;24.13;14.30;;;;;;;-142.06;100.00;64312.41;5039860;28;20231;-84
2024/01/13 10:59:36;;;;;;;23.90;15.60;;;;;;;-142.06;100.00;64312.41;5040784;28;20744;-86
2024/01/13 11:02:08;;;;;;;23.67;15.07;;;;;;;-142.06;100.00;64312.41;5027828;28;20255;-83